createdAt,value
2022-09-06T00:03:52.100Z,57.83
2022-09-06T00:08:56.416Z,57.63
2022-09-06T00:14:01.582Z,57.74
2022-09-06T00:19:04.463Z,58.06
2022-09-06T00:24:08.806Z,58.19
2022-09-06T00:29:12.098Z,57.68
2022-09-06T00:34:14.987Z,58.06
2022-09-06T00:39:19.281Z,57.87
2022-09-06T00:44:22.226Z,58.14
2022-09-06T00:49:29.461Z,58.19
2022-09-06T00:54:34.387Z,58.08
2022-09-06T00:59:39.415Z,57.96
2022-09-06T01:04:46.214Z,58.22
2022-09-06T01:10:04.374Z,58.15
2022-09-06T01:15:17.556Z,57.67
2022-09-06T01:20:39.108Z,57.86
2022-09-06T01:25:53.832Z,57.60
2022-09-06T01:31:10.678Z,57.55
2022-09-06T01:36:18.219Z,57.53
2022-09-06T01:41:21.116Z,57.39
2022-09-06T01:46:34.289Z,57.27
2022-09-06T01:51:50.486Z,57.23
2022-09-06T01:57:12.436Z,57.30
2022-09-06T02:02:22.283Z,57.25
2022-09-06T02:07:28.326Z,56.91
2022-09-06T02:12:34.325Z,56.61
2022-09-06T02:17:43.949Z,56.19
2022-09-06T02:22:51.166Z,56.20
2022-09-06T02:27:55.044Z,55.99
2022-09-06T02:33:03.827Z,55.83
2022-09-06T02:38:06.806Z,55.43
2022-09-06T02:43:12.212Z,55.15
2022-09-06T02:48:18.814Z,54.68
2022-09-06T02:53:21.858Z,54.31
2022-09-06T02:58:25.217Z,53.98
2022-09-06T03:03:33.256Z,54.11
2022-09-06T03:08:36.821Z,53.91
2022-09-06T03:13:56.050Z,53.79
2022-09-06T03:19:02.481Z,53.28
2022-09-06T03:24:05.947Z,52.57
2022-09-06T03:29:09.764Z,52.58
2022-09-06T03:34:14.232Z,52.16
2022-09-06T03:39:17.247Z,52.20
2022-09-06T03:44:20.594Z,52.08
2022-09-06T03:49:25.196Z,52.08
2022-09-06T03:54:29.110Z,51.17
2022-09-06T03:59:32.041Z,51.49
2022-09-06T04:04:36.285Z,50.56
2022-09-06T04:09:39.205Z,50.28
2022-09-06T04:14:42.047Z,49.59
2022-09-06T04:19:46.302Z,49.49
2022-09-06T04:24:49.331Z,49.06
2022-09-06T04:29:52.503Z,48.93
2022-09-06T04:34:56.711Z,49.25
2022-09-06T04:39:59.815Z,49.43
2022-09-06T04:45:03.116Z,49.83
2022-09-06T04:50:08.387Z,49.67
2022-09-06T04:55:11.552Z,49.66
2022-09-06T05:00:15.819Z,49.70
2022-09-06T05:05:20.546Z,49.13
2022-09-06T05:10:24.699Z,49.02
2022-09-06T05:15:27.807Z,48.87
2022-09-06T05:20:32.503Z,49.17
2022-09-06T05:25:35.532Z,49.24
2022-09-06T05:30:38.442Z,48.46
2022-09-06T05:35:43.637Z,48.94
2022-09-06T05:40:46.553Z,48.58
2022-09-06T05:45:49.599Z,48.46
2022-09-06T05:51:02.545Z,48.36
2022-09-06T05:56:12.455Z,48.32
2022-09-06T06:01:21.835Z,47.71
2022-09-06T06:06:27.972Z,47.59
2022-09-06T06:11:31.830Z,47.24
2022-09-06T06:16:34.905Z,47.87
2022-09-06T06:21:39.414Z,48.05
2022-09-06T06:26:42.219Z,48.16
2022-09-06T06:31:45.496Z,49.00
2022-09-06T06:36:50.707Z,48.31
2022-09-06T06:41:54.321Z,47.89
2022-09-06T06:47:15.982Z,48.48
2022-09-06T06:52:21.397Z,48.33
2022-09-06T06:57:24.309Z,49.16
2022-09-06T07:02:27.324Z,48.37
2022-09-06T07:07:32.800Z,47.65
2022-09-06T07:12:37.666Z,46.42
2022-09-06T07:17:40.780Z,47.16
2022-09-06T07:22:45.076Z,47.67
2022-09-06T07:27:48.975Z,48.00
2022-09-06T07:32:52.636Z,47.66
2022-09-06T07:38:05.442Z,47.43
2022-09-06T07:43:08.445Z,48.08
2022-09-06T07:48:11.263Z,48.21
2022-09-06T07:53:23.028Z,48.92
2022-09-06T07:58:35.506Z,49.30
2022-09-06T08:03:38.539Z,48.79
2022-09-06T08:09:01.169Z,48.82
2022-09-06T08:14:06.046Z,48.68
2022-09-06T08:19:10.847Z,48.29
2022-09-06T08:24:15.186Z,48.80
2022-09-06T08:29:19.774Z,48.11
2022-09-06T08:34:23.024Z,48.45
2022-09-06T08:39:27.501Z,48.37
2022-09-06T08:50:03.425Z,48.77
2022-09-06T08:55:17.256Z,50.24
2022-09-06T09:00:23.077Z,50.85
2022-09-06T09:05:30.465Z,50.77
2022-09-06T09:10:42.304Z,50.94
2022-09-06T09:15:45.372Z,50.71
2022-09-06T09:20:48.568Z,49.64
2022-09-06T09:25:56.760Z,50.08
2022-09-06T09:31:00.070Z,51.14
2022-09-06T09:36:07.966Z,49.67
2022-09-06T09:41:25.788Z,48.64
2022-09-06T09:46:34.138Z,48.12
2022-09-06T09:51:38.990Z,49.44
2022-09-06T09:56:47.468Z,50.89
2022-09-06T10:01:53.671Z,51.65
2022-09-06T10:07:10.000Z,50.86
2022-09-06T10:12:30.434Z,50.80
2022-09-06T10:17:36.499Z,51.22
2022-09-06T10:22:51.740Z,51.76
2022-09-06T10:28:28.359Z,51.80
2022-09-06T10:33:38.557Z,52.58
2022-09-06T10:38:55.464Z,51.95
2022-09-06T10:44:09.115Z,51.71
2022-09-06T10:49:17.403Z,51.28
2022-09-06T10:54:23.792Z,50.67
2022-09-06T11:10:07.761Z,50.70
2022-09-06T11:15:15.281Z,50.27
2022-09-06T11:20:29.940Z,50.53
2022-09-06T11:25:59.313Z,49.12
2022-09-06T11:31:04.067Z,48.96
2022-09-06T11:36:18.909Z,49.54
2022-09-06T11:41:22.404Z,50.22
2022-09-06T11:47:01.923Z,50.16
2022-09-06T11:52:38.455Z,49.28
2022-09-06T11:57:42.791Z,49.77
2022-09-06T12:02:47.210Z,50.08
2022-09-06T12:08:26.775Z,49.86
2022-09-06T12:13:55.539Z,51.20
2022-09-06T12:19:02.831Z,50.56
2022-09-06T12:24:07.851Z,50.05
2022-09-06T12:29:12.254Z,49.84
2022-09-06T12:34:22.550Z,50.00
2022-09-06T12:39:25.913Z,48.81
2022-09-06T12:44:36.966Z,48.14
2022-09-06T12:49:41.545Z,47.72
2022-09-06T12:54:46.868Z,47.62
2022-09-06T12:59:54.045Z,49.17
2022-09-06T13:05:05.361Z,49.15
2022-09-06T13:10:09.926Z,49.23
2022-09-06T13:15:15.725Z,50.01
2022-09-06T13:20:28.251Z,50.12
2022-09-06T13:25:31.110Z,49.97
2022-09-06T13:30:42.031Z,49.49
2022-09-06T13:35:51.935Z,49.21
2022-09-06T13:41:11.642Z,49.61
2022-09-06T13:46:16.575Z,50.04
2022-09-06T13:51:21.411Z,51.78
2022-09-06T13:56:24.296Z,52.82
2022-09-06T14:01:27.489Z,52.83
2022-09-06T14:06:36.569Z,52.54
2022-09-06T14:11:40.912Z,52.34
2022-09-06T14:16:47.553Z,52.18
2022-09-06T14:21:52.552Z,51.85
2022-09-06T14:26:55.583Z,50.94
2022-09-06T14:31:58.388Z,50.82
2022-09-06T14:37:02.509Z,50.71
2022-09-06T14:42:05.688Z,51.06
2022-09-06T14:47:08.742Z,51.02
2022-09-06T14:52:13.460Z,51.17
2022-09-06T14:57:16.659Z,51.34
2022-09-06T15:02:19.652Z,51.10
2022-09-06T15:07:24.370Z,50.85
2022-09-06T15:12:27.411Z,50.04
2022-09-06T15:17:31.796Z,50.03
2022-09-06T15:22:36.726Z,49.90
2022-09-06T15:27:39.730Z,49.68
2022-09-06T15:32:46.432Z,49.46
2022-09-06T15:37:50.948Z,49.12
2022-09-06T15:42:54.096Z,48.70
2022-09-06T15:47:57.322Z,48.63
2022-09-06T15:53:03.244Z,48.32
2022-09-06T15:58:06.550Z,48.25
2022-09-06T16:03:09.944Z,48.26
2022-09-06T16:08:15.422Z,48.49
2022-09-06T16:13:18.547Z,47.56
2022-09-06T16:18:21.650Z,47.62
2022-09-06T16:23:28.405Z,48.11
2022-09-06T16:28:32.849Z,48.43
2022-09-06T16:33:37.746Z,49.29
2022-09-06T16:38:42.897Z,49.93
2022-09-06T16:43:46.767Z,50.07
2022-09-06T16:48:52.262Z,50.44
2022-09-06T16:53:56.880Z,50.73
2022-09-06T16:59:02.688Z,50.84
2022-09-06T17:04:09.584Z,51.13
2022-09-06T17:09:18.874Z,51.51
2022-09-06T17:14:21.928Z,51.55
2022-09-06T17:19:24.931Z,51.51
2022-09-06T17:24:32.841Z,51.77
2022-09-06T17:29:35.713Z,51.96
2022-09-06T17:34:39.449Z,52.40
2022-09-06T17:39:43.819Z,52.56
2022-09-06T17:44:46.826Z,52.49
2022-09-06T17:49:49.837Z,52.83
2022-09-06T17:54:55.008Z,53.18
2022-09-06T17:59:58.043Z,53.42
2022-09-06T18:05:01.094Z,53.70
2022-09-06T18:10:07.415Z,54.18
2022-09-06T18:15:11.994Z,54.55
2022-09-06T18:20:15.523Z,55.15
2022-09-06T18:25:24.015Z,55.48
2022-09-06T18:30:30.436Z,56.44
2022-09-06T18:35:42.043Z,56.61
2022-09-06T18:41:40.408Z,57.77
2022-09-06T19:00:26.154Z,60.58
2022-09-06T19:05:59.118Z,60.59
2022-09-06T19:11:43.964Z,60.21
2022-09-06T19:17:12.350Z,60.86
2022-09-06T19:22:15.756Z,61.95
2022-09-06T19:27:28.274Z,62.33
2022-09-06T19:33:01.774Z,62.91
2022-09-06T19:38:52.726Z,63.39
2022-09-06T19:51:02.375Z,63.00
2022-09-06T20:03:18.846Z,61.43
2022-09-06T20:08:32.475Z,60.83
2022-09-06T20:14:35.505Z,60.57
2022-09-06T20:19:43.803Z,60.71
2022-09-06T20:31:56.329Z,61.27
2022-09-06T20:36:59.641Z,61.12
2022-09-06T20:42:02.568Z,61.31
2022-09-06T20:47:13.308Z,61.23
2022-09-06T20:52:18.612Z,61.30
2022-09-06T20:57:22.040Z,60.90
2022-09-06T21:02:26.853Z,61.35
2022-09-06T21:07:30.117Z,61.48
2022-09-06T21:12:33.081Z,61.67
2022-09-06T21:23:21.838Z,61.39
2022-09-06T21:28:26.000Z,61.57
2022-09-06T21:33:31.221Z,61.37
2022-09-06T21:38:35.033Z,61.36
2022-09-06T21:43:38.312Z,61.42
2022-09-06T21:48:44.207Z,61.71
2022-09-06T21:53:48.517Z,61.52
2022-09-06T21:58:52.255Z,61.23
2022-09-06T22:03:57.035Z,61.38
2022-09-06T22:09:01.757Z,61.60
2022-09-06T22:14:08.115Z,61.59
2022-09-06T22:19:14.261Z,61.65
2022-09-06T22:24:17.478Z,61.77
2022-09-06T22:29:20.449Z,60.99
2022-09-06T22:34:24.859Z,61.22
2022-09-06T22:39:27.849Z,61.06
2022-09-06T22:44:31.486Z,60.88
2022-09-06T22:49:35.795Z,60.93
2022-09-06T22:54:39.000Z,61.16
2022-09-06T22:59:42.033Z,61.34
2022-09-06T23:04:46.645Z,61.52
2022-09-06T23:09:49.642Z,61.41
2022-09-06T23:14:52.636Z,61.54
2022-09-06T23:19:57.479Z,61.81
2022-09-06T23:25:00.740Z,62.63
2022-09-06T23:30:05.349Z,62.45
2022-09-06T23:35:10.338Z,62.24
2022-09-06T23:40:14.809Z,62.10
2022-09-06T23:45:17.773Z,62.29
2022-09-06T23:50:22.689Z,62.39
2022-09-06T23:55:25.724Z,62.28
